createdAt,value
2023-11-10T00:02:09.662Z,13.20
2023-11-10T00:04:40.284Z,14.60
2023-11-10T00:07:10.610Z,14.60
2023-11-10T00:09:40.877Z,16.00
2023-11-10T00:12:11.502Z,14.30
2023-11-10T00:14:41.620Z,15.70
2023-11-10T00:17:12.401Z,15.30
2023-11-10T00:19:44.361Z,13.30
2023-11-10T00:22:14.551Z,11.10
2023-11-10T00:24:47.588Z,9.90
2023-11-10T00:27:18.255Z,12.50
2023-11-10T00:29:49.541Z,14.90
2023-11-10T00:32:19.741Z,11.80
2023-11-10T00:34:49.931Z,13.30
2023-11-10T00:37:20.101Z,13.90
2023-11-10T00:39:50.207Z,16.60
2023-11-10T00:42:20.297Z,14.40
2023-11-10T00:44:52.210Z,13.70
2023-11-10T00:47:22.563Z,15.70
2023-11-10T00:49:52.809Z,16.00
2023-11-10T00:52:22.943Z,17.70
2023-11-10T00:54:53.110Z,14.90
2023-11-10T00:57:23.187Z,8.20
2023-11-10T00:59:53.148Z,11.70
2023-11-10T01:02:23.171Z,10.30
2023-11-10T01:04:53.344Z,12.70
2023-11-10T01:07:23.509Z,13.20
2023-11-10T01:09:53.563Z,13.00
2023-11-10T01:12:23.793Z,16.00
2023-11-10T01:14:54.488Z,16.10
2023-11-10T01:17:24.736Z,14.00
2023-11-10T01:19:55.350Z,16.30
2023-11-10T01:22:25.556Z,14.90
2023-11-10T01:24:55.739Z,14.50
2023-11-10T01:27:26.764Z,15.00
2023-11-10T01:29:56.795Z,9.90
2023-11-10T01:32:27.332Z,9.90
2023-11-10T01:34:57.397Z,11.10
2023-11-10T01:37:27.855Z,13.10
2023-11-10T01:39:58.336Z,12.90
2023-11-10T01:42:29.041Z,12.70
2023-11-10T01:44:59.161Z,13.20
2023-11-10T01:47:29.552Z,15.40
2023-11-10T01:49:59.733Z,15.10
2023-11-10T01:52:29.817Z,16.60
2023-11-10T01:55:00.005Z,14.10
2023-11-10T01:57:30.226Z,15.60
2023-11-10T02:00:02.394Z,12.50
2023-11-10T02:02:41.303Z,8.70
2023-11-10T02:05:11.594Z,10.80
2023-11-10T02:07:41.686Z,16.00
2023-11-10T02:10:12.379Z,12.50
2023-11-10T02:12:51.907Z,13.10
2023-11-10T02:15:22.043Z,13.50
2023-11-10T02:17:52.897Z,14.60
2023-11-10T02:20:24.361Z,14.00
2023-11-10T02:22:54.860Z,13.60
2023-11-10T02:25:25.045Z,13.70
2023-11-10T02:27:55.186Z,14.50
2023-11-10T02:30:25.368Z,14.10
2023-11-10T02:32:55.546Z,12.90
2023-11-10T02:35:25.747Z,14.90
2023-11-10T02:37:56.421Z,10.00
2023-11-10T02:40:26.777Z,10.80
2023-11-10T02:42:57.129Z,12.90
2023-11-10T02:45:27.722Z,12.20
2023-11-10T02:47:57.890Z,14.50
2023-11-10T02:50:28.619Z,11.90
2023-11-10T02:52:58.836Z,12.80
2023-11-10T02:55:28.865Z,13.20
2023-11-10T02:57:59.200Z,15.30
2023-11-10T03:00:29.548Z,13.00
2023-11-10T03:03:00.149Z,14.70
2023-11-10T03:05:31.684Z,14.40
2023-11-10T03:08:02.637Z,16.50
2023-11-10T03:10:32.945Z,9.40
2023-11-10T03:13:04.479Z,9.40
2023-11-10T03:15:34.655Z,12.00
2023-11-10T03:18:05.963Z,11.10
2023-11-10T03:20:36.480Z,11.90
2023-11-10T03:23:06.807Z,11.10
2023-11-10T03:25:36.947Z,14.20
2023-11-10T03:28:07.257Z,14.20
2023-11-10T03:30:37.606Z,10.50
2023-11-10T03:33:07.969Z,13.40
2023-11-10T03:35:38.659Z,13.40
2023-11-10T03:38:08.801Z,12.60
2023-11-10T03:40:39.288Z,14.30
2023-11-10T03:43:09.443Z,8.20
2023-11-10T03:45:40.549Z,9.50
2023-11-10T03:48:10.547Z,9.10
2023-11-10T03:50:41.018Z,10.10
2023-11-10T03:53:11.293Z,10.50
2023-11-10T03:55:41.406Z,11.40
2023-11-10T03:58:12.088Z,14.10
2023-11-10T04:00:48.742Z,12.00
2023-11-10T04:03:20.036Z,13.30
2023-11-10T04:05:50.920Z,9.00
2023-11-10T04:08:21.470Z,11.70
2023-11-10T04:10:51.504Z,10.30
2023-11-10T04:13:21.516Z,11.30
2023-11-10T04:15:51.585Z,11.60
2023-11-10T04:18:22.891Z,14.10
2023-11-10T04:20:53.035Z,15.90
2023-11-10T04:23:23.400Z,16.20
2023-11-10T04:25:53.795Z,16.90
2023-11-10T04:28:25.449Z,8.40
2023-11-10T04:30:55.776Z,11.20
2023-11-10T04:33:26.127Z,12.90
2023-11-10T04:35:56.280Z,13.30
2023-11-10T04:38:30.006Z,15.60
2023-11-10T04:41:00.997Z,14.00
2023-11-10T04:43:31.241Z,15.60
2023-11-10T04:46:03.271Z,14.10
2023-11-10T04:48:33.672Z,13.60
2023-11-10T04:51:06.902Z,17.90
2023-11-10T04:53:38.169Z,10.10
2023-11-10T04:56:08.826Z,10.90
2023-11-10T04:58:39.176Z,14.00
2023-11-10T05:01:09.179Z,12.10
2023-11-10T05:03:39.268Z,13.80
2023-11-10T05:06:09.525Z,14.60
2023-11-10T05:08:39.788Z,16.90
2023-11-10T05:11:09.712Z,14.60
2023-11-10T05:13:40.597Z,13.30
2023-11-10T05:16:12.156Z,14.40
2023-11-10T05:21:15.376Z,7.80
2023-11-10T05:23:45.712Z,11.10
2023-11-10T05:26:15.912Z,11.00
2023-11-10T05:28:46.020Z,12.20
2023-11-10T05:31:17.193Z,15.30
2023-11-10T05:33:47.378Z,13.80
2023-11-10T05:36:17.485Z,13.10
2023-11-10T05:38:47.509Z,13.10
2023-11-10T05:41:19.110Z,11.50
2023-11-10T05:43:49.358Z,6.70
2023-11-10T05:46:19.409Z,8.40
2023-11-10T05:48:49.411Z,11.20
2023-11-10T05:51:19.598Z,10.20
2023-11-10T05:53:49.882Z,9.30
2023-11-10T05:56:23.359Z,10.00
2023-11-10T05:58:54.199Z,10.30
2023-11-10T06:01:27.985Z,11.20
2023-11-10T06:03:58.215Z,11.30
2023-11-10T06:06:29.486Z,10.60
2023-11-10T06:08:59.675Z,8.20
2023-11-10T06:11:32.777Z,8.60
2023-11-10T06:14:11.424Z,9.20
2023-11-10T06:16:42.100Z,10.00
2023-11-10T06:19:12.467Z,9.80
2023-11-10T06:21:42.876Z,11.20
2023-11-10T06:24:13.110Z,16.20
2023-11-10T06:26:43.228Z,11.20
2023-11-10T06:29:13.413Z,12.10
2023-11-10T06:31:43.449Z,10.50
2023-11-10T06:34:13.634Z,12.10
2023-11-10T06:36:43.973Z,7.70
2023-11-10T06:39:16.508Z,8.20
2023-11-10T06:41:47.366Z,8.40
2023-11-10T06:44:20.494Z,10.10
2023-11-10T06:46:50.843Z,7.90
2023-11-10T06:49:20.974Z,9.20
2023-11-10T06:51:51.112Z,12.80
2023-11-10T06:54:21.819Z,11.10
2023-11-10T06:56:54.566Z,10.10
2023-11-10T06:59:27.154Z,11.60
2023-11-10T07:01:58.439Z,8.60
2023-11-10T07:04:28.543Z,7.70
2023-11-10T07:06:58.747Z,9.70
2023-11-10T07:09:28.964Z,10.30
2023-11-10T07:11:59.072Z,11.40
2023-11-10T07:14:29.298Z,10.70
2023-11-10T07:16:59.516Z,12.70
2023-11-10T07:19:30.175Z,11.90
2023-11-10T07:22:00.435Z,14.60
2023-11-10T07:24:30.766Z,11.00
2023-11-10T07:27:01.128Z,12.20
2023-11-10T07:29:31.421Z,7.20
2023-11-10T07:32:04.737Z,9.00
2023-11-10T07:34:35.092Z,8.10
2023-11-10T07:37:08.305Z,8.60
2023-11-10T07:39:38.630Z,9.10
2023-11-10T07:42:09.020Z,9.50
2023-11-10T07:44:39.571Z,12.30
2023-11-10T07:47:09.689Z,9.50
2023-11-10T07:49:39.916Z,9.80
2023-11-10T07:52:10.284Z,11.70
2023-11-10T07:54:40.542Z,10.70
2023-11-10T07:57:10.641Z,9.50
2023-11-10T07:59:40.672Z,8.40
2023-11-10T08:02:10.743Z,7.10
2023-11-10T08:04:41.460Z,8.10
2023-11-10T08:07:12.830Z,9.40
2023-11-10T08:09:43.308Z,11.20
2023-11-10T08:12:13.592Z,8.00
2023-11-10T08:14:44.402Z,9.00
2023-11-10T08:17:15.227Z,8.90
2023-11-10T08:19:46.320Z,9.50
2023-11-10T08:22:19.352Z,9.80
2023-11-10T08:24:49.741Z,8.60
2023-11-10T08:27:19.878Z,10.40
2023-11-10T08:29:50.133Z,10.80
2023-11-10T08:32:20.215Z,9.40
2023-11-10T08:34:50.471Z,7.80
2023-11-10T08:37:21.269Z,6.30
2023-11-10T08:39:51.584Z,6.00
2023-11-10T08:42:22.445Z,6.70
2023-11-10T08:44:52.800Z,6.70
2023-11-10T08:47:23.004Z,7.10
2023-11-10T08:49:54.346Z,6.60
2023-11-10T08:52:26.149Z,6.80
2023-11-10T08:54:56.565Z,9.00
2023-11-10T08:57:27.251Z,7.30
2023-11-10T08:59:58.028Z,7.00
2023-11-10T09:02:28.284Z,8.00
2023-11-10T09:04:58.699Z,6.70
2023-11-10T09:07:29.021Z,7.40
2023-11-10T09:10:00.355Z,7.20
2023-11-10T09:12:31.944Z,7.90
2023-11-10T09:15:02.201Z,9.20
2023-11-10T09:17:33.179Z,7.50
2023-11-10T09:20:06.076Z,6.90
2023-11-10T09:22:37.399Z,7.70
2023-11-10T09:25:10.798Z,8.40
2023-11-10T09:27:41.195Z,7.30
2023-11-10T09:30:12.833Z,7.30
2023-11-10T09:32:43.281Z,7.40
2023-11-10T09:35:15.859Z,7.80
2023-11-10T09:37:47.881Z,6.80
2023-11-10T09:40:20.844Z,7.80
2023-11-10T09:42:51.083Z,7.50
2023-11-10T09:45:23.559Z,6.40
2023-11-10T09:47:54.449Z,6.20
2023-11-10T09:50:27.001Z,5.80
2023-11-10T09:52:57.507Z,6.60
2023-11-10T09:55:28.039Z,7.20
2023-11-10T09:57:58.393Z,6.60
2023-11-10T10:00:28.559Z,6.90
2023-11-10T10:02:58.888Z,6.60
2023-11-10T10:05:29.451Z,7.50
2023-11-10T10:07:59.670Z,6.70
2023-11-10T10:10:30.147Z,7.10
2023-11-10T10:13:02.428Z,7.90
2023-11-10T10:15:34.239Z,6.20
2023-11-10T10:18:11.077Z,6.70
2023-11-10T10:20:41.223Z,5.50
2023-11-10T10:23:11.593Z,6.70
2023-11-10T10:25:41.878Z,5.50
2023-11-10T10:28:12.070Z,7.40
2023-11-10T10:30:43.392Z,5.50
2023-11-10T10:33:13.919Z,6.90
2023-11-10T10:35:45.309Z,6.00
2023-11-10T10:38:16.084Z,5.70
2023-11-10T10:40:46.504Z,6.50
2023-11-10T10:43:16.770Z,8.00
2023-11-10T10:45:47.366Z,5.70
2023-11-10T10:48:17.825Z,7.30
2023-11-10T10:50:49.283Z,6.70
2023-11-10T10:53:19.422Z,6.60
2023-11-10T10:55:52.459Z,6.50
2023-11-10T10:58:23.550Z,7.00
2023-11-10T11:00:53.862Z,6.60
2023-11-10T11:03:30.870Z,6.90
2023-11-10T11:06:07.778Z,6.90
2023-11-10T11:08:47.597Z,7.60
2023-11-10T11:11:31.921Z,6.80
2023-11-10T11:14:22.273Z,7.10
2023-11-10T11:17:02.146Z,7.80
2023-11-10T11:19:35.974Z,9.60
2023-11-10T11:22:06.921Z,7.00
2023-11-10T11:24:37.220Z,7.10
2023-11-10T11:27:08.133Z,7.70
2023-11-10T11:29:39.029Z,6.80
2023-11-10T11:32:20.387Z,8.30
2023-11-10T11:34:53.871Z,6.10
2023-11-10T11:37:23.926Z,5.90
2023-11-10T11:39:55.307Z,6.20
2023-11-10T11:42:34.630Z,6.00
2023-11-10T11:45:09.561Z,7.20
2023-11-10T11:47:39.702Z,5.20
2023-11-10T11:50:13.460Z,5.70
2023-11-10T11:52:46.533Z,4.60
2023-11-10T11:55:16.839Z,5.50
2023-11-10T11:57:49.399Z,5.90
2023-11-10T12:00:20.102Z,5.40
2023-11-10T12:02:50.784Z,5.50
2023-11-10T12:05:20.976Z,6.80
2023-11-10T12:07:51.194Z,5.70
2023-11-10T12:10:21.794Z,5.30
2023-11-10T12:12:51.819Z,4.70
2023-11-10T12:15:23.581Z,5.90
2023-11-10T12:17:54.817Z,5.90
2023-11-10T12:20:26.298Z,6.20
2023-11-10T12:22:56.968Z,4.50
2023-11-10T12:25:31.039Z,6.80
2023-11-10T12:28:01.590Z,3.90
2023-11-10T12:30:31.889Z,5.00
2023-11-10T12:33:03.383Z,4.80
2023-11-10T12:35:34.579Z,4.40
2023-11-10T12:38:05.830Z,5.00
2023-11-10T12:40:38.735Z,5.90
2023-11-10T12:43:09.295Z,5.20
2023-11-10T12:45:39.680Z,5.10
2023-11-10T12:48:16.841Z,4.60
2023-11-10T12:50:48.883Z,4.30
2023-11-10T12:53:20.996Z,5.30
2023-11-10T12:55:51.333Z,6.30
2023-11-10T12:58:21.453Z,4.60
2023-11-10T13:00:52.165Z,6.40
2023-11-10T13:03:22.535Z,4.90
2023-11-10T13:05:52.704Z,6.20
2023-11-10T13:08:24.686Z,4.90
2023-11-10T13:10:55.791Z,5.70
2023-11-10T13:13:25.838Z,5.20
2023-11-10T13:15:56.076Z,4.60
2023-11-10T13:18:26.310Z,4.40
2023-11-10T13:20:57.157Z,6.70
2023-11-10T13:23:28.322Z,4.90
2023-11-10T13:25:58.523Z,5.00
2023-11-10T13:28:38.844Z,4.30
2023-11-10T13:31:25.372Z,7.40
2023-11-10T13:33:59.011Z,5.50
2023-11-10T13:36:29.207Z,4.80
2023-11-10T13:38:59.552Z,4.20
2023-11-10T13:41:36.601Z,5.30
2023-11-10T13:44:11.387Z,5.10
2023-11-10T13:46:42.160Z,4.90
2023-11-10T13:49:13.387Z,4.30
2023-11-10T13:51:43.771Z,4.20
2023-11-10T13:54:14.121Z,5.10
2023-11-10T13:56:44.134Z,4.70
2023-11-10T13:59:14.233Z,4.60
2023-11-10T14:01:44.410Z,4.60
2023-11-10T14:04:14.990Z,4.50
2023-11-10T14:06:45.374Z,5.50
2023-11-10T14:09:16.565Z,5.20
2023-11-10T14:11:48.639Z,4.10
2023-11-10T14:14:19.338Z,4.60
2023-11-10T14:16:49.624Z,4.80
2023-11-10T14:19:19.987Z,4.90
2023-11-10T14:21:50.197Z,5.80
2023-11-10T14:24:20.483Z,4.70
2023-11-10T14:26:50.662Z,6.60
2023-11-10T14:29:21.069Z,5.70
2023-11-10T14:31:51.263Z,5.10
2023-11-10T14:34:21.372Z,7.30
2023-11-10T14:36:51.552Z,5.30
2023-11-10T14:39:22.653Z,5.80
2023-11-10T14:41:52.961Z,4.70
2023-11-10T14:44:24.193Z,4.80
2023-11-10T14:46:54.416Z,4.80
2023-11-10T14:49:25.108Z,5.30
2023-11-10T14:52:04.097Z,5.80
2023-11-10T14:54:35.372Z,4.90
2023-11-10T14:57:05.931Z,7.40
2023-11-10T14:59:35.982Z,5.80
2023-11-10T15:02:07.798Z,6.60
2023-11-10T15:04:45.487Z,6.50
2023-11-10T15:07:16.744Z,7.40
2023-11-10T15:09:47.657Z,5.80
2023-11-10T15:12:18.188Z,6.20
2023-11-10T15:14:48.331Z,6.50
2023-11-10T15:17:18.805Z,6.50
2023-11-10T15:19:49.029Z,5.60
2023-11-10T15:22:19.721Z,6.90
2023-11-10T15:24:49.907Z,7.30
2023-11-10T15:27:20.018Z,6.10
2023-11-10T15:29:50.078Z,7.20
2023-11-10T15:32:21.588Z,6.80
2023-11-10T15:34:52.285Z,7.40
2023-11-10T15:37:23.752Z,5.50
2023-11-10T15:39:54.364Z,6.40
2023-11-10T15:42:24.774Z,7.00
2023-11-10T15:44:55.257Z,6.00
2023-11-10T15:47:25.857Z,5.90
2023-11-10T15:49:55.953Z,9.70
2023-11-10T15:52:26.176Z,7.50
2023-11-10T15:55:00.454Z,5.00
2023-11-10T15:57:30.647Z,7.10
2023-11-10T16:00:00.936Z,5.40
2023-11-10T16:02:31.204Z,6.40
2023-11-10T16:05:01.806Z,6.40
2023-11-10T16:07:31.982Z,8.10
2023-11-10T16:10:04.231Z,6.70
2023-11-10T16:12:34.497Z,6.50
2023-11-10T16:15:05.792Z,6.20
2023-11-10T16:17:36.187Z,7.60
2023-11-10T16:20:08.865Z,6.50
2023-11-10T16:22:41.956Z,6.50
2023-11-10T16:25:12.593Z,6.70
2023-11-10T16:27:43.261Z,6.50
2023-11-10T16:30:15.023Z,8.60
2023-11-10T16:32:45.323Z,6.50
2023-11-10T16:35:15.717Z,7.60
2023-11-10T16:37:45.961Z,7.50
2023-11-10T16:40:16.852Z,6.50
2023-11-10T16:42:48.750Z,7.50
2023-11-10T16:45:19.076Z,6.90
2023-11-10T16:47:49.374Z,6.10
2023-11-10T16:50:19.760Z,6.30
2023-11-10T16:52:50.096Z,6.00
2023-11-10T16:55:20.465Z,7.60
2023-11-10T16:57:51.029Z,8.70
2023-11-10T17:00:33.396Z,6.40
2023-11-10T17:03:11.511Z,6.30
2023-11-10T17:05:46.929Z,5.90
2023-11-10T17:08:17.672Z,6.10
2023-11-10T17:10:47.941Z,6.70
2023-11-10T17:13:18.043Z,6.10
2023-11-10T17:15:49.884Z,5.90
2023-11-10T17:18:19.989Z,6.70
2023-11-10T17:20:50.245Z,6.90
2023-11-10T17:23:21.568Z,8.00
2023-11-10T17:25:52.149Z,7.70
2023-11-10T17:28:22.319Z,7.10
2023-11-10T17:30:52.517Z,6.90
2023-11-10T17:33:22.662Z,6.60
2023-11-10T17:35:52.814Z,6.80
2023-11-10T17:38:24.657Z,7.30
2023-11-10T17:41:00.001Z,7.30
2023-11-10T17:43:29.995Z,8.50
2023-11-10T17:46:00.148Z,9.00
2023-11-10T17:48:30.447Z,7.00
2023-11-10T17:51:09.942Z,7.60
2023-11-10T17:53:40.429Z,7.10
2023-11-10T17:56:11.046Z,7.20
2023-11-10T17:58:41.474Z,7.80
2023-11-10T18:01:12.419Z,7.50
2023-11-10T18:03:42.789Z,7.00
2023-11-10T18:06:13.275Z,7.20
2023-11-10T18:08:43.648Z,9.40
2023-11-10T18:11:13.887Z,8.30
2023-11-10T18:13:44.140Z,6.70
2023-11-10T18:16:15.912Z,7.50
2023-11-10T18:18:47.253Z,8.10
2023-11-10T18:21:18.291Z,8.50
2023-11-10T18:23:48.444Z,7.50
2023-11-10T18:26:21.335Z,9.50
2023-11-10T18:28:52.536Z,6.90
2023-11-10T18:31:23.752Z,8.10
2023-11-10T18:33:54.454Z,8.00
2023-11-10T18:36:25.226Z,6.90
2023-11-10T18:38:55.459Z,7.30
2023-11-10T18:41:25.641Z,6.10
2023-11-10T18:43:56.233Z,6.80
2023-11-10T18:46:26.423Z,8.60
2023-11-10T18:48:56.890Z,7.20
2023-11-10T18:51:33.682Z,7.20
2023-11-10T18:54:04.480Z,7.40
2023-11-10T18:56:36.923Z,7.10
2023-11-10T18:59:10.483Z,6.60
2023-11-10T19:01:42.615Z,8.10
2023-11-10T19:04:13.086Z,7.50
2023-11-10T19:06:44.134Z,8.40
2023-11-10T19:09:14.960Z,10.60
2023-11-10T19:11:45.270Z,8.50
2023-11-10T19:14:15.368Z,8.10
2023-11-10T19:16:45.501Z,6.80
2023-11-10T19:19:15.655Z,7.80
2023-11-10T19:21:46.086Z,9.50
2023-11-10T19:24:16.363Z,6.60
2023-11-10T19:26:46.452Z,7.30
2023-11-10T19:29:17.288Z,7.00
2023-11-10T19:31:47.397Z,7.70
2023-11-10T19:35:43.135Z,6.70
2023-11-10T19:38:13.170Z,6.70
2023-11-10T19:40:43.371Z,9.20
2023-11-10T19:43:17.755Z,11.30
2023-11-10T19:45:48.167Z,4.50
2023-11-10T19:48:19.984Z,5.60
2023-11-10T19:50:50.324Z,6.20
2023-11-10T19:53:22.141Z,5.70
2023-11-10T19:55:57.295Z,5.80
2023-11-10T20:01:00.598Z,5.80
2023-11-10T20:03:30.980Z,5.50
2023-11-10T20:06:01.492Z,7.50
2023-11-10T20:08:34.263Z,7.10
2023-11-10T20:11:04.846Z,8.60
2023-11-10T20:13:35.138Z,6.50
2023-11-10T20:16:06.372Z,6.10
2023-11-10T20:18:37.653Z,6.10
2023-11-10T20:21:09.522Z,5.60
2023-11-10T20:23:40.132Z,5.90
2023-11-10T20:26:10.908Z,5.80
2023-11-10T20:28:41.800Z,6.10
2023-11-10T20:31:12.456Z,5.60
2023-11-10T20:33:42.824Z,6.20
2023-11-10T20:36:13.279Z,6.10
2023-11-10T20:38:44.442Z,4.50
2023-11-10T20:41:14.554Z,6.70
2023-11-10T20:43:45.144Z,5.50
2023-11-10T20:46:15.263Z,5.60
2023-11-10T20:48:45.315Z,5.50
2023-11-10T20:51:20.589Z,6.60
2023-11-10T20:53:51.066Z,5.40
2023-11-10T20:56:21.549Z,5.70
2023-11-10T20:58:52.147Z,5.90
2023-11-10T21:01:23.910Z,5.30
2023-11-10T21:03:54.482Z,7.40
2023-11-10T21:06:27.108Z,5.60
2023-11-10T21:08:57.354Z,6.90
2023-11-10T21:11:27.540Z,5.90
2023-11-10T21:13:58.371Z,7.90
2023-11-10T21:16:28.499Z,5.00
2023-11-10T21:18:58.722Z,7.10
2023-11-10T21:21:28.785Z,5.90
2023-11-10T21:23:58.961Z,4.60
2023-11-10T21:26:29.079Z,5.00
2023-11-10T21:28:59.321Z,7.50
2023-11-10T21:31:29.665Z,6.60
2023-11-10T21:33:59.924Z,5.60
2023-11-10T21:36:30.102Z,6.50
2023-11-10T21:39:00.355Z,4.90
2023-11-10T21:41:30.525Z,5.70
2023-11-10T21:44:00.901Z,8.20
2023-11-10T21:46:31.609Z,6.40
2023-11-10T21:49:01.818Z,6.10
2023-11-10T21:51:32.976Z,7.00
2023-11-10T21:54:03.535Z,5.80
2023-11-10T21:56:34.081Z,6.10
2023-11-10T21:59:04.533Z,6.80
2023-11-10T22:01:36.844Z,6.00
2023-11-10T22:04:08.087Z,6.70
2023-11-10T22:06:38.753Z,4.60
2023-11-10T22:09:09.423Z,4.50
2023-11-10T22:11:39.935Z,5.90
2023-11-10T22:14:10.006Z,6.20
2023-11-10T22:16:40.341Z,5.30
2023-11-10T22:19:10.699Z,7.30
2023-11-10T22:21:41.283Z,5.40
2023-11-10T22:24:12.452Z,5.80
2023-11-10T22:26:42.677Z,6.60
2023-11-10T22:29:13.096Z,6.00
2023-11-10T22:31:43.212Z,5.00
2023-11-10T22:34:13.460Z,6.60
2023-11-10T22:36:43.747Z,5.30
2023-11-10T22:39:13.833Z,5.70
2023-11-10T22:41:44.533Z,6.30
2023-11-10T22:44:14.657Z,6.60
2023-11-10T22:46:44.952Z,5.10
2023-11-10T22:49:17.040Z,7.70
2023-11-10T22:51:47.215Z,7.70
2023-11-10T22:54:17.504Z,6.30
2023-11-10T22:56:47.709Z,6.20
2023-11-10T22:59:19.219Z,6.20
2023-11-10T23:01:50.809Z,4.30
2023-11-10T23:04:22.335Z,7.50
2023-11-10T23:06:52.757Z,6.90
2023-11-10T23:09:24.994Z,6.40
2023-11-10T23:11:56.997Z,6.80
2023-11-10T23:14:27.492Z,6.10
2023-11-10T23:16:57.884Z,6.20
2023-11-10T23:19:28.257Z,6.70
2023-11-10T23:35:15.190Z,6.80
2023-11-10T23:37:45.209Z,6.20
2023-11-10T23:40:15.428Z,5.80
2023-11-10T23:42:45.430Z,5.90
2023-11-10T23:45:18.191Z,6.00
2023-11-10T23:47:48.927Z,5.60
2023-11-10T23:50:19.198Z,5.40
2023-11-10T23:52:49.299Z,5.90
2023-11-10T23:55:19.828Z,5.40
2023-11-10T23:57:49.979Z,6.20
